sensor_id;sensor_type;location;lat;lon;timestamp;pressure;altitude;pressure_sealevel;temperature;humidity
69784;BME280;57054;51.978;4.498;2023-02-13T00:00:21;103798.03;;;6.36;94.54
69784;BME280;57054;51.978;4.498;2023-02-13T00:02:46;103799.78;;;6.36;94.59
69784;BME280;57054;51.978;4.498;2023-02-13T00:05:12;103798.00;;;6.34;94.71
69784;BME280;57054;51.978;4.498;2023-02-13T00:07:37;103792.78;;;6.34;94.88
69784;BME280;57054;51.978;4.498;2023-02-13T00:10:03;103797.16;;;6.36;94.98
69784;BME280;57054;51.978;4.498;2023-02-13T00:12:29;103796.31;;;6.37;94.88
69784;BME280;57054;51.978;4.498;2023-02-13T00:14:54;103795.44;;;6.36;94.86
69784;BME280;57054;51.978;4.498;2023-02-13T00:17:20;103793.69;;;6.35;94.55
69784;BME280;57054;51.978;4.498;2023-02-13T00:19:45;103796.25;;;6.33;94.42
69784;BME280;57054;51.978;4.498;2023-02-13T00:22:10;103794.47;;;6.32;94.36
69784;BME280;57054;51.978;4.498;2023-02-13T00:24:36;103794.44;;;6.29;93.94
69784;BME280;57054;51.978;4.498;2023-02-13T00:27:01;103790.88;;;6.27;94.13
69784;BME280;57054;51.978;4.498;2023-02-13T00:29:27;103789.19;;;6.28;94.28
69784;BME280;57054;51.978;4.498;2023-02-13T00:31:52;103783.94;;;6.26;94.29
69784;BME280;57054;51.978;4.498;2023-02-13T00:34:17;103788.28;;;6.27;94.52
69784;BME280;57054;51.978;4.498;2023-02-13T00:36:43;103783.13;;;6.29;94.55
69784;BME280;57054;51.978;4.498;2023-02-13T00:39:11;103785.75;;;6.30;94.73
69784;BME280;57054;51.978;4.498;2023-02-13T00:41:38;103786.69;;;6.32;94.63
69784;BME280;57054;51.978;4.498;2023-02-13T00:44:03;103788.41;;;6.32;94.51
69784;BME280;57054;51.978;4.498;2023-02-13T00:46:29;103791.06;;;6.33;94.67
69784;BME280;57054;51.978;4.498;2023-02-13T00:48:54;103784.13;;;6.34;94.93
69784;BME280;57054;51.978;4.498;2023-02-13T00:51:19;103788.50;;;6.37;95.19
69784;BME280;57054;51.978;4.498;2023-02-13T00:53:45;103787.69;;;6.38;95.45
69784;BME280;57054;51.978;4.498;2023-02-13T00:56:10;103779.03;;;6.39;95.40
69784;BME280;57054;51.978;4.498;2023-02-13T00:58:35;103775.53;;;6.38;95.29
69784;BME280;57054;51.978;4.498;2023-02-13T01:01:01;103771.16;;;6.36;95.12
69784;BME280;57054;51.978;4.498;2023-02-13T01:03:27;103772.84;;;6.33;94.56
69784;BME280;57054;51.978;4.498;2023-02-13T01:05:52;103773.63;;;6.31;94.32
69784;BME280;57054;51.978;4.498;2023-02-13T01:08:19;103769.31;;;6.31;94.70
69784;BME280;57054;51.978;4.498;2023-02-13T01:10:46;103772.78;;;6.32;94.96
69784;BME280;57054;51.978;4.498;2023-02-13T01:13:14;103772.78;;;6.32;95.26
69784;BME280;57054;51.978;4.498;2023-02-13T01:15:40;103768.47;;;6.32;95.11
69784;BME280;57054;51.978;4.498;2023-02-13T01:18:05;103768.41;;;6.31;95.10
69784;BME280;57054;51.978;4.498;2023-02-13T01:20:31;103766.72;;;6.33;95.05
69784;BME280;57054;51.978;4.498;2023-02-13T01:22:57;103769.31;;;6.31;95.26
69784;BME280;57054;51.978;4.498;2023-02-13T01:25:23;103766.72;;;6.33;95.15
69784;BME280;57054;51.978;4.498;2023-02-13T01:27:48;103765.91;;;6.34;95.26
69784;BME280;57054;51.978;4.498;2023-02-13T01:30:15;103757.25;;;6.35;95.60
69784;BME280;57054;51.978;4.498;2023-02-13T01:32:42;103763.38;;;6.37;95.62
69784;BME280;57054;51.978;4.498;2023-02-13T01:35:09;103755.53;;;6.36;95.63
69784;BME280;57054;51.978;4.498;2023-02-13T01:37:35;103758.13;;;6.36;95.53
69784;BME280;57054;51.978;4.498;2023-02-13T01:40:01;103760.78;;;6.37;95.85
69784;BME280;57054;51.978;4.498;2023-02-13T01:42:30;103766.84;;;6.38;96.09
69784;BME280;57054;51.978;4.498;2023-02-13T01:45:00;103758.16;;;6.37;96.18
69784;BME280;57054;51.978;4.498;2023-02-13T01:47:41;103757.25;;;6.35;95.64
69784;BME280;57054;51.978;4.498;2023-02-13T01:50:19;103763.34;;;6.36;95.65
69784;BME280;57054;51.978;4.498;2023-02-13T01:52:50;103759.88;;;6.37;95.91
69784;BME280;57054;51.978;4.498;2023-02-13T01:55:17;103757.25;;;6.37;96.22
69784;BME280;57054;51.978;4.498;2023-02-13T01:57:47;103755.56;;;6.37;96.14
69784;BME280;57054;51.978;4.498;2023-02-13T02:00:16;103753.00;;;6.39;96.37
69784;BME280;57054;51.978;4.498;2023-02-13T02:02:48;103753.88;;;6.39;96.58
69784;BME280;57054;51.978;4.498;2023-02-13T02:05:15;103755.63;;;6.40;96.78
69784;BME280;57054;51.978;4.498;2023-02-13T02:07:43;103757.38;;;6.41;96.99
69784;BME280;57054;51.978;4.498;2023-02-13T02:10:19;103759.13;;;6.41;96.90
69784;BME280;57054;51.978;4.498;2023-02-13T02:15:28;103756.31;;;6.31;95.30
69784;BME280;57054;51.978;4.498;2023-02-13T02:17:54;103759.75;;;6.30;95.42
69784;BME280;57054;51.978;4.498;2023-02-13T02:36:36;103745.19;;;6.39;97.11
69784;BME280;57054;51.978;4.498;2023-02-13T02:39:26;103751.19;;;6.36;96.82
69784;BME280;57054;51.978;4.498;2023-02-13T02:42:08;103740.78;;;6.36;96.54
69784;BME280;57054;51.978;4.498;2023-02-13T02:44:41;103738.91;;;6.30;95.48
69784;BME280;57054;51.978;4.498;2023-02-13T02:52:58;103744.97;;;6.29;96.06
69784;BME280;57054;51.978;4.498;2023-02-13T02:55:45;103731.88;;;6.26;95.83
69784;BME280;57054;51.978;4.498;2023-02-13T03:01:18;103730.22;;;6.30;96.45
69784;BME280;57054;51.978;4.498;2023-02-13T03:04:05;103729.38;;;6.31;96.22
69784;BME280;57054;51.978;4.498;2023-02-13T03:06:52;103724.22;;;6.32;96.50
69784;BME280;57054;51.978;4.498;2023-02-13T03:09:23;103733.78;;;6.33;96.54
69784;BME280;57054;51.978;4.498;2023-02-13T03:12:10;103727.72;;;6.34;96.75
69784;BME280;57054;51.978;4.498;2023-02-13T03:14:56;103730.38;;;6.36;96.91
69784;BME280;57054;51.978;4.498;2023-02-13T03:17:21;103724.28;;;6.36;97.03
69784;BME280;57054;51.978;4.498;2023-02-13T03:20:13;103726.84;;;6.34;96.85
69784;BME280;57054;51.978;4.498;2023-02-13T03:23:07;103725.94;;;6.32;96.41
69784;BME280;57054;51.978;4.498;2023-02-13T03:26:03;103725.00;;;6.28;95.70
69784;BME280;57054;51.978;4.498;2023-02-13T03:35:48;103714.38;;;6.19;95.29
69784;BME280;57054;51.978;4.498;2023-02-13T03:41:30;103719.47;;;6.16;95.16
69784;BME280;57054;51.978;4.498;2023-02-13T03:44:14;103711.59;;;6.13;94.78
69784;BME280;57054;51.978;4.498;2023-02-13T03:46:44;103714.97;;;6.09;94.83
69784;BME280;57054;51.978;4.498;2023-02-13T03:49:21;103713.19;;;6.06;94.81
69784;BME280;57054;51.978;4.498;2023-02-13T03:52:21;103713.16;;;6.05;94.81
69784;BME280;57054;51.978;4.498;2023-02-13T03:54:55;103710.56;;;6.05;95.28
69784;BME280;57054;51.978;4.498;2023-02-13T03:57:43;103706.19;;;6.04;95.23
69784;BME280;57054;51.978;4.498;2023-02-13T04:00:33;103699.28;;;6.04;95.45
69784;BME280;57054;51.978;4.498;2023-02-13T04:03:09;103696.72;;;6.06;95.43
69784;BME280;57054;51.978;4.498;2023-02-13T04:05:40;103701.06;;;6.07;95.52
69784;BME280;57054;51.978;4.498;2023-02-13T04:08:07;103689.81;;;6.08;95.79
69784;BME280;57054;51.978;4.498;2023-02-13T04:10:35;103708.94;;;6.10;95.74
69784;BME280;57054;51.978;4.498;2023-02-13T04:15:36;103710.81;;;6.15;96.36
69784;BME280;57054;51.978;4.498;2023-02-13T04:18:13;103701.31;;;6.18;96.23
69784;BME280;57054;51.978;4.498;2023-02-13T04:20:40;103704.81;;;6.20;96.43
69784;BME280;57054;51.978;4.498;2023-02-13T04:23:08;103703.09;;;6.19;96.11
69784;BME280;57054;51.978;4.498;2023-02-13T04:25:35;103699.56;;;6.18;96.12
69784;BME280;57054;51.978;4.498;2023-02-13T04:28:02;103696.97;;;6.18;96.11
69784;BME280;57054;51.978;4.498;2023-02-13T04:30:27;103703.09;;;6.19;96.43
69784;BME280;57054;51.978;4.498;2023-02-13T04:32:53;103705.75;;;6.22;96.76
69784;BME280;57054;51.978;4.498;2023-02-13T04:35:19;103708.34;;;6.22;96.53
69784;BME280;57054;51.978;4.498;2023-02-13T04:37:44;103710.09;;;6.23;96.60
69784;BME280;57054;51.978;4.498;2023-02-13T04:40:10;103712.72;;;6.23;96.77
69784;BME280;57054;51.978;4.498;2023-02-13T04:42:35;103711.84;;;6.22;96.32
69784;BME280;57054;51.978;4.498;2023-02-13T04:45:01;103715.28;;;6.21;96.20
69784;BME280;57054;51.978;4.498;2023-02-13T04:47:26;103705.69;;;6.20;96.34
69784;BME280;57054;51.978;4.498;2023-02-13T04:49:52;103714.44;;;6.22;96.61
69784;BME280;57054;51.978;4.498;2023-02-13T04:52:17;103708.41;;;6.25;96.57
69784;BME280;57054;51.978;4.498;2023-02-13T04:54:43;103706.63;;;6.22;96.11
69784;BME280;57054;51.978;4.498;2023-02-13T04:57:08;103690.94;;;6.19;95.99
69784;BME280;57054;51.978;4.498;2023-02-13T04:59:34;103693.53;;;6.19;96.03
69784;BME280;57054;51.978;4.498;2023-02-13T05:01:59;103690.94;;;6.19;96.23
69784;BME280;57054;51.978;4.498;2023-02-13T05:04:24;103688.31;;;6.18;96.09
69784;BME280;57054;51.978;4.498;2023-02-13T05:06:50;103690.03;;;6.17;96.03
69784;BME280;57054;51.978;4.498;2023-02-13T05:09:16;103688.31;;;6.18;96.33
69784;BME280;57054;51.978;4.498;2023-02-13T05:11:41;103684.88;;;6.20;96.50
69784;BME280;57054;51.978;4.498;2023-02-13T05:14:08;103684.91;;;6.22;96.51
69784;BME280;57054;51.978;4.498;2023-02-13T05:16:33;103687.56;;;6.23;96.70
69784;BME280;57054;51.978;4.498;2023-02-13T05:18:59;103690.16;;;6.23;96.53
69784;BME280;57054;51.978;4.498;2023-02-13T05:21:24;103692.72;;;6.22;96.67
69784;BME280;57054;51.978;4.498;2023-02-13T05:24:08;103697.06;;;6.21;96.57
69784;BME280;57054;51.978;4.498;2023-02-13T05:26:33;103689.22;;;6.20;96.43
69784;BME280;57054;51.978;4.498;2023-02-13T05:28:59;103692.72;;;6.22;96.69
69784;BME280;57054;51.978;4.498;2023-02-13T05:31:43;103693.63;;;6.24;96.67
69784;BME280;57054;51.978;4.498;2023-02-13T05:34:08;103689.34;;;6.24;96.96
69784;BME280;57054;51.978;4.498;2023-02-13T05:36:34;103693.69;;;6.25;96.99
69784;BME280;57054;51.978;4.498;2023-02-13T05:38:59;103690.25;;;6.26;97.20
69784;BME280;57054;51.978;4.498;2023-02-13T05:41:25;103684.16;;;6.27;97.30
69784;BME280;57054;51.978;4.498;2023-02-13T05:43:50;103680.69;;;6.27;97.23
69784;BME280;57054;51.978;4.498;2023-02-13T05:46:15;103689.38;;;6.27;97.39
69784;BME280;57054;51.978;4.498;2023-02-13T05:48:41;103687.63;;;6.26;97.28
69784;BME280;57054;51.978;4.498;2023-02-13T05:51:06;103694.59;;;6.27;97.45
69784;BME280;57054;51.978;4.498;2023-02-13T05:53:32;103688.50;;;6.27;97.57
69784;BME280;57054;51.978;4.498;2023-02-13T05:56:02;103693.75;;;6.28;97.67
69784;BME280;57054;51.978;4.498;2023-02-13T05:58:28;103685.94;;;6.28;97.63
69784;BME280;57054;51.978;4.498;2023-02-13T06:00:57;103689.41;;;6.29;97.59
69784;BME280;57054;51.978;4.498;2023-02-13T06:03:29;103690.25;;;6.26;97.49
69784;BME280;57054;51.978;4.498;2023-02-13T06:05:55;103692.84;;;6.26;97.43
69784;BME280;57054;51.978;4.498;2023-02-13T06:08:21;103692.81;;;6.25;97.38
69784;BME280;57054;51.978;4.498;2023-02-13T06:10:47;103685.81;;;6.22;97.24
69784;BME280;57054;51.978;4.498;2023-02-13T06:13:13;103684.03;;;6.21;97.56
69784;BME280;57054;51.978;4.498;2023-02-13T06:15:39;103684.91;;;6.22;97.52
69784;BME280;57054;51.978;4.498;2023-02-13T06:18:04;103682.28;;;6.20;97.29
69784;BME280;57054;51.978;4.498;2023-02-13T06:20:30;103674.41;;;6.17;97.45
69784;BME280;57054;51.978;4.498;2023-02-13T06:22:55;103682.25;;;6.19;97.32
69784;BME280;57054;51.978;4.498;2023-02-13T06:25:20;103675.31;;;6.19;97.62
69784;BME280;57054;51.978;4.498;2023-02-13T06:27:46;103672.75;;;6.21;97.86
69784;BME280;57054;51.978;4.498;2023-02-13T06:30:12;103674.50;;;6.22;97.86
69784;BME280;57054;51.978;4.498;2023-02-13T06:32:38;103679.75;;;6.23;98.02
69784;BME280;57054;51.978;4.498;2023-02-13T06:35:04;103680.63;;;6.24;98.13
69784;BME280;57054;51.978;4.498;2023-02-13T06:37:29;103680.66;;;6.25;98.40
69784;BME280;57054;51.978;4.498;2023-02-13T06:39:54;103673.75;;;6.26;98.38
69784;BME280;57054;51.978;4.498;2023-02-13T06:42:20;103676.34;;;6.26;98.44
69784;BME280;57054;51.978;4.498;2023-02-13T06:44:46;103687.69;;;6.28;98.38
69784;BME280;57054;51.978;4.498;2023-02-13T06:47:11;103686.81;;;6.29;98.51
69784;BME280;57054;51.978;4.498;2023-02-13T06:49:37;103696.41;;;6.30;98.46
69784;BME280;57054;51.978;4.498;2023-02-13T06:52:02;103690.31;;;6.31;98.52
69784;BME280;57054;51.978;4.498;2023-02-13T06:54:27;103692.06;;;6.30;98.62
69784;BME280;57054;51.978;4.498;2023-02-13T06:56:53;103697.31;;;6.32;98.89
69784;BME280;57054;51.978;4.498;2023-02-13T06:59:18;103693.84;;;6.31;98.97
69784;BME280;57054;51.978;4.498;2023-02-13T07:01:44;103702.50;;;6.32;99.10
69784;BME280;57054;51.978;4.498;2023-02-13T07:04:09;103705.13;;;6.32;99.06
69784;BME280;57054;51.978;4.498;2023-02-13T07:06:35;103700.78;;;6.32;99.22
69784;BME280;57054;51.978;4.498;2023-02-13T07:09:02;103698.22;;;6.34;99.71
69784;BME280;57054;51.978;4.498;2023-02-13T07:11:27;103702.56;;;6.33;99.10
69784;BME280;57054;51.978;4.498;2023-02-13T07:13:53;103706.00;;;6.32;99.60
69784;BME280;57054;51.978;4.498;2023-02-13T07:16:18;103716.41;;;6.32;99.51
69784;BME280;57054;51.978;4.498;2023-02-13T07:18:43;103719.03;;;6.34;99.79
69784;BME280;57054;51.978;4.498;2023-02-13T07:21:09;103722.50;;;6.34;99.74
69784;BME280;57054;51.978;4.498;2023-02-13T07:23:35;103712.97;;;6.33;99.95
69784;BME280;57054;51.978;4.498;2023-02-13T07:26:00;103712.09;;;6.34;99.94
69784;BME280;57054;51.978;4.498;2023-02-13T07:28:27;103707.81;;;6.35;100.00
69784;BME280;57054;51.978;4.498;2023-02-13T07:30:53;103716.47;;;6.36;100.00
69784;BME280;57054;51.978;4.498;2023-02-13T07:33:18;103710.41;;;6.35;100.00
69784;BME280;57054;51.978;4.498;2023-02-13T07:35:48;103719.09;;;6.36;100.00
69784;BME280;57054;51.978;4.498;2023-02-13T07:38:14;103708.66;;;6.36;100.00
69784;BME280;57054;51.978;4.498;2023-02-13T07:40:40;103709.53;;;6.36;100.00
69784;BME280;57054;51.978;4.498;2023-02-13T07:43:05;103712.13;;;6.36;100.00
69784;BME280;57054;51.978;4.498;2023-02-13T07:45:31;103721.72;;;6.37;100.00
69784;BME280;57054;51.978;4.498;2023-02-13T07:47:56;103722.56;;;6.36;100.00
69784;BME280;57054;51.978;4.498;2023-02-13T07:50:22;103720.00;;;6.38;100.00
69784;BME280;57054;51.978;4.498;2023-02-13T07:53:00;103717.34;;;6.36;100.00
69784;BME280;57054;51.978;4.498;2023-02-13T07:55:27;103721.69;;;6.36;100.00
69784;BME280;57054;51.978;4.498;2023-02-13T07:57:53;103718.22;;;6.35;100.00
69784;BME280;57054;51.978;4.498;2023-02-13T08:00:19;103726.03;;;6.35;100.00
69784;BME280;57054;51.978;4.498;2023-02-13T08:02:45;103716.44;;;6.34;100.00
69784;BME280;57054;51.978;4.498;2023-02-13T08:05:11;103729.44;;;6.34;100.00
69784;BME280;57054;51.978;4.498;2023-02-13T08:07:37;103719.03;;;6.34;100.00
69784;BME280;57054;51.978;4.498;2023-02-13T08:10:06;103719.88;;;6.33;100.00
69784;BME280;57054;51.978;4.498;2023-02-13T08:12:50;103726.81;;;6.32;100.00
69784;BME280;57054;51.978;4.498;2023-02-13T08:15:16;103731.97;;;6.31;100.00
69784;BME280;57054;51.978;4.498;2023-02-13T08:17:42;103729.31;;;6.28;100.00
69784;BME280;57054;51.978;4.498;2023-02-13T08:20:08;103742.28;;;6.26;100.00
69784;BME280;57054;51.978;4.498;2023-02-13T08:22:35;103731.84;;;6.25;100.00
69784;BME280;57054;51.978;4.498;2023-02-13T08:25:00;103732.66;;;6.24;100.00
69784;BME280;57054;51.978;4.498;2023-02-13T08:27:26;103730.88;;;6.21;100.00
69784;BME280;57054;51.978;4.498;2023-02-13T08:29:54;103727.34;;;6.18;99.94
69784;BME280;57054;51.978;4.498;2023-02-13T08:32:20;103733.34;;;6.15;99.55
69784;BME280;57054;51.978;4.498;2023-02-13T08:34:46;103734.16;;;6.12;99.60
69784;BME280;57054;51.978;4.498;2023-02-13T08:37:11;103732.41;;;6.11;99.72
69784;BME280;57054;51.978;4.498;2023-02-13T08:39:36;103736.69;;;6.09;99.84
69784;BME280;57054;51.978;4.498;2023-02-13T08:42:02;103732.34;;;6.10;99.89
69784;BME280;57054;51.978;4.498;2023-02-13T08:44:27;103733.19;;;6.09;99.91
69784;BME280;57054;51.978;4.498;2023-02-13T08:46:53;103739.28;;;6.09;99.97
69784;BME280;57054;51.978;4.498;2023-02-13T08:49:18;103739.28;;;6.09;99.96
69784;BME280;57054;51.978;4.498;2023-02-13T08:51:44;103741.91;;;6.09;100.00
69784;BME280;57054;51.978;4.498;2023-02-13T08:54:09;103742.69;;;6.07;100.00
69784;BME280;57054;51.978;4.498;2023-02-13T08:56:34;103740.09;;;6.07;100.00
69784;BME280;57054;51.978;4.498;2023-02-13T08:59:00;103744.38;;;6.05;100.00
69784;BME280;57054;51.978;4.498;2023-02-13T09:01:25;103745.19;;;6.04;100.00
69784;BME280;57054;51.978;4.498;2023-02-13T09:03:51;103740.00;;;6.04;100.00
69784;BME280;57054;51.978;4.498;2023-02-13T09:06:16;103740.03;;;6.05;100.00
69784;BME280;57054;51.978;4.498;2023-02-13T09:08:42;103739.13;;;6.03;100.00
69784;BME280;57054;51.978;4.498;2023-02-13T09:11:08;103744.38;;;6.05;100.00
69784;BME280;57054;51.978;4.498;2023-02-13T09:13:34;103746.97;;;6.05;100.00
69784;BME280;57054;51.978;4.498;2023-02-13T09:16:03;103743.50;;;6.04;100.00
69784;BME280;57054;51.978;4.498;2023-02-13T09:18:28;103739.16;;;6.05;100.00
69784;BME280;57054;51.978;4.498;2023-02-13T09:23:23;103738.34;;;6.07;100.00
69784;BME280;57054;51.978;4.498;2023-02-13T09:25:49;103737.56;;;6.10;100.00
69784;BME280;57054;51.978;4.498;2023-02-13T09:28:14;103736.72;;;6.11;100.00
69784;BME280;57054;51.978;4.498;2023-02-13T09:30:40;103745.41;;;6.13;100.00
69784;BME280;57054;51.978;4.498;2023-02-13T09:33:09;103745.41;;;6.13;100.00
69784;BME280;57054;51.978;4.498;2023-02-13T09:35:36;103742.81;;;6.13;100.00
69784;BME280;57054;51.978;4.498;2023-02-13T09:38:01;103747.19;;;6.14;100.00
69784;BME280;57054;51.978;4.498;2023-02-13T09:43:16;103746.38;;;6.15;100.00
69784;BME280;57054;51.978;4.498;2023-02-13T09:45:44;103742.88;;;6.14;100.00
69784;BME280;57054;51.978;4.498;2023-02-13T09:48:23;103733.34;;;6.15;100.00
69784;BME280;57054;51.978;4.498;2023-02-13T09:50:52;103737.69;;;6.16;100.00
69784;BME280;57054;51.978;4.498;2023-02-13T09:53:21;103738.66;;;6.20;100.00
69784;BME280;57054;51.978;4.498;2023-02-13T09:55:59;103741.34;;;6.23;100.00
69784;BME280;57054;51.978;4.498;2023-02-13T09:58:45;103742.22;;;6.23;100.00
69784;BME280;57054;51.978;4.498;2023-02-13T10:01:19;103742.22;;;6.23;100.00
69784;BME280;57054;51.978;4.498;2023-02-13T10:04:24;103740.47;;;6.24;100.00
69784;BME280;57054;51.978;4.498;2023-02-13T10:07:01;103741.44;;;6.26;100.00
69784;BME280;57054;51.978;4.498;2023-02-13T10:10:02;103738.84;;;6.27;100.00
69784;BME280;57054;51.978;4.498;2023-02-13T10:12:48;103742.34;;;6.28;100.00
69784;BME280;57054;51.978;4.498;2023-02-13T10:18:24;103740.69;;;6.33;100.00
69784;BME280;57054;51.978;4.498;2023-02-13T10:20:58;103726.03;;;6.37;100.00
69784;BME280;57054;51.978;4.498;2023-02-13T10:23:32;103727.84;;;6.39;100.00
69784;BME280;57054;51.978;4.498;2023-02-13T10:26:03;103730.53;;;6.42;100.00
69784;BME280;57054;51.978;4.498;2023-02-13T10:31:16;103726.28;;;6.47;100.00
69784;BME280;57054;51.978;4.498;2023-02-13T10:36:20;103720.31;;;6.51;100.00
69784;BME280;57054;51.978;4.498;2023-02-13T10:39:26;103718.66;;;6.55;100.00
69784;BME280;57054;51.978;4.498;2023-02-13T10:58:21;103713.81;;;6.72;99.64
69784;BME280;57054;51.978;4.498;2023-02-13T11:00:55;103716.44;;;6.73;99.45
69784;BME280;57054;51.978;4.498;2023-02-13T11:03:25;103719.09;;;6.77;99.39
69784;BME280;57054;51.978;4.498;2023-02-13T11:05:52;103712.22;;;6.80;99.63
69784;BME280;57054;51.978;4.498;2023-02-13T11:08:31;103703.63;;;6.83;99.61
69784;BME280;57054;51.978;4.498;2023-02-13T11:10:56;103709.78;;;6.86;99.66
69784;BME280;57054;51.978;4.498;2023-02-13T11:13:25;103698.53;;;6.89;99.50
69784;BME280;57054;51.978;4.498;2023-02-13T11:16:09;103708.16;;;6.91;99.28
69784;BME280;57054;51.978;4.498;2023-02-13T11:18:37;103699.50;;;6.94;99.29
69784;BME280;57054;51.978;4.498;2023-02-13T11:21:07;103697.84;;;6.98;99.18
69784;BME280;57054;51.978;4.498;2023-02-13T11:23:38;103692.66;;;6.99;98.93
69784;BME280;57054;51.978;4.498;2023-02-13T11:26:11;103691.00;;;7.03;98.65
69784;BME280;57054;51.978;4.498;2023-02-13T11:28:50;103676.31;;;7.06;98.86
69784;BME280;57054;51.978;4.498;2023-02-13T11:31:23;103676.38;;;7.09;98.91
69784;BME280;57054;51.978;4.498;2023-02-13T11:33:49;103671.22;;;7.14;98.99
69784;BME280;57054;51.978;4.498;2023-02-13T11:36:33;103673.03;;;7.18;98.94
69784;BME280;57054;51.978;4.498;2023-02-13T11:39:05;103670.50;;;7.21;98.46
69784;BME280;57054;51.978;4.498;2023-02-13T11:41:38;103676.63;;;7.25;98.40
69784;BME280;57054;51.978;4.498;2023-02-13T11:44:18;103655.84;;;7.28;98.51
69784;BME280;57054;51.978;4.498;2023-02-13T11:46:47;103662.91;;;7.34;98.26
69784;BME280;57054;51.978;4.498;2023-02-13T11:49:24;103663.81;;;7.36;97.69
69784;BME280;57054;51.978;4.498;2023-02-13T11:51:52;103653.44;;;7.40;97.84
69784;BME280;57054;51.978;4.498;2023-02-13T11:54:20;103659.59;;;7.44;97.52
69784;BME280;57054;51.978;4.498;2023-02-13T11:56:53;103655.31;;;7.47;96.72
69784;BME280;57054;51.978;4.498;2023-02-13T11:59:22;103661.47;;;7.49;96.40
69784;BME280;57054;51.978;4.498;2023-02-13T12:02:01;103654.56;;;7.53;96.13
69784;BME280;57054;51.978;4.498;2023-02-13T12:04:28;103657.19;;;7.56;96.37
69784;BME280;57054;51.978;4.498;2023-02-13T12:07:26;103657.25;;;7.59;96.60
69784;BME280;57054;51.978;4.498;2023-02-13T12:12:55;103651.28;;;7.66;97.22
69784;BME280;57054;51.978;4.498;2023-02-13T12:23:30;103648.16;;;7.89;95.91
69784;BME280;57054;51.978;4.498;2023-02-13T12:42:50;103630.31;;;8.15;94.32
69784;BME280;57054;51.978;4.498;2023-02-13T12:45:27;103618.16;;;8.20;94.06
69784;BME280;57054;51.978;4.498;2023-02-13T12:48:09;103615.59;;;8.23;93.40
69784;BME280;57054;51.978;4.498;2023-02-13T12:50:55;103620.84;;;8.25;91.93
69784;BME280;57054;51.978;4.498;2023-02-13T12:53:35;103622.63;;;8.29;91.85
69784;BME280;57054;51.978;4.498;2023-02-13T12:56:21;103618.34;;;8.33;91.93
69784;BME280;57054;51.978;4.498;2023-02-13T12:59:09;103614.94;;;8.37;91.70
69784;BME280;57054;51.978;4.498;2023-02-13T13:09:50;103615.06;;;8.48;92.46
69784;BME280;57054;51.978;4.498;2023-02-13T13:12:23;103609.00;;;8.49;91.17
69784;BME280;57054;51.978;4.498;2023-02-13T13:14:54;103607.25;;;8.49;91.46
69784;BME280;57054;51.978;4.498;2023-02-13T13:20:36;103606.44;;;8.55;90.76
69784;BME280;57054;51.978;4.498;2023-02-13T13:23:14;103601.28;;;8.59;91.20
69784;BME280;57054;51.978;4.498;2023-02-13T13:25:47;103597.81;;;8.62;90.05
69784;BME280;57054;51.978;4.498;2023-02-13T13:28:18;103595.25;;;8.65;90.56
69784;BME280;57054;51.978;4.498;2023-02-13T13:30:46;103599.63;;;8.68;90.72
69784;BME280;57054;51.978;4.498;2023-02-13T13:33:21;103597.94;;;8.70;89.44
69784;BME280;57054;51.978;4.498;2023-02-13T13:36:08;103586.66;;;8.74;90.22
69784;BME280;57054;51.978;4.498;2023-02-13T13:39:01;103584.97;;;8.79;90.50
69784;BME280;57054;51.978;4.498;2023-02-13T13:41:47;103583.28;;;8.82;90.16
69784;BME280;57054;51.978;4.498;2023-02-13T13:49:56;103579.91;;;8.96;90.12
69784;BME280;57054;51.978;4.498;2023-02-13T13:52:28;103575.56;;;8.96;89.81
69784;BME280;57054;51.978;4.498;2023-02-13T13:54:55;103573.81;;;8.98;89.14
69784;BME280;57054;51.978;4.498;2023-02-13T13:57:26;103566.88;;;8.99;87.14
69784;BME280;57054;51.978;4.498;2023-02-13T14:00:00;103568.63;;;9.00;88.05
69784;BME280;57054;51.978;4.498;2023-02-13T14:07:36;103559.06;;;9.03;87.99
69784;BME280;57054;51.978;4.498;2023-02-13T14:10:02;103555.56;;;9.01;88.27
69784;BME280;57054;51.978;4.498;2023-02-13T14:14:54;103555.59;;;9.03;87.74
69784;BME280;57054;51.978;4.498;2023-02-13T14:20:30;103559.09;;;9.05;87.80
69784;BME280;57054;51.978;4.498;2023-02-13T14:23:06;103549.50;;;9.06;88.48
69784;BME280;57054;51.978;4.498;2023-02-13T14:25:37;103552.09;;;9.06;88.80
69784;BME280;57054;51.978;4.498;2023-02-13T14:28:03;103539.91;;;9.05;87.84
69784;BME280;57054;51.978;4.498;2023-02-13T14:30:32;103536.44;;;9.06;88.51
69784;BME280;57054;51.978;4.498;2023-02-13T14:33:07;103533.81;;;9.07;88.50
69784;BME280;57054;51.978;4.498;2023-02-13T14:35:45;103532.97;;;9.08;88.17
69784;BME280;57054;51.978;4.498;2023-02-13T14:38:23;103535.59;;;9.08;87.88
69784;BME280;57054;51.978;4.498;2023-02-13T14:40:50;103547.78;;;9.09;87.81
69784;BME280;57054;51.978;4.498;2023-02-13T14:43:32;103546.91;;;9.09;87.50
69784;BME280;57054;51.978;4.498;2023-02-13T14:46:07;103546.06;;;9.10;87.59
69784;BME280;57054;51.978;4.498;2023-02-13T14:48:39;103539.94;;;9.09;87.36
69784;BME280;57054;51.978;4.498;2023-02-13T14:51:06;103539.09;;;9.10;87.41
69784;BME280;57054;51.978;4.498;2023-02-13T14:54:18;103539.09;;;9.10;87.78
69784;BME280;57054;51.978;4.498;2023-02-13T14:56:49;103544.31;;;9.10;88.15
69784;BME280;57054;51.978;4.498;2023-02-13T14:59:18;103543.44;;;9.08;87.22
69784;BME280;57054;51.978;4.498;2023-02-13T15:01:49;103539.94;;;9.09;87.52
69784;BME280;57054;51.978;4.498;2023-02-13T15:04:29;103538.22;;;9.08;87.67
69784;BME280;57054;51.978;4.498;2023-02-13T15:06:58;103535.59;;;9.08;87.37
69784;BME280;57054;51.978;4.498;2023-02-13T15:09:35;103523.38;;;9.07;87.19
69784;BME280;57054;51.978;4.498;2023-02-13T15:12:03;103526.84;;;9.08;87.64
69784;BME280;57054;51.978;4.498;2023-02-13T15:14:33;103522.53;;;9.08;87.72
69784;BME280;57054;51.978;4.498;2023-02-13T15:19:46;103522.50;;;9.07;87.09
69784;BME280;57054;51.978;4.498;2023-02-13T15:22:23;103522.50;;;9.07;86.77